Strona główna
METAR-TAF:

METAR-TAF

Lotnisko :

Platforma wiertnicza

Awg-1, Holandia

Szerokość geograficzna: 53-29-30N, Długość geograficzna: 5-56-30E, wysokość: 33 m

Aktualna obserwacja pogody

Raport powstał 44 minut temu, godzina 06:25 UTC
Wiatr 17 kt od zachód
Temperatura 6°C
Wilgotność 70%
Ciśnienie 1011 hPa
Widzialność 10 km lub więcej
Rozproszone chmury na wysokości 2100 ft
Przerywane chmury na wysokości 2600 ft

METAR: EHMA 280625Z AUTO 28017KT 9999 SCT021 BKN026 06/01 Q1011

czas: 08:09 (07:09 UTC)


TAF: brakujący

Obserwacja i prognoza pogody dla ponad 4000 lotnisk (raport METAR i TAF).

Dostępne stacje oznaczono żółtymi i czerwonymi punktami na mapie.

Najedź kursorem aby zobaczyć nazwę stacji.

Kliknij aby zobaczyć obserwacje i prognozy pogody.

Aby zmienić mapę: kliknij na zielony przycisk z czarnym krzyżykiem, aby powiększyć; na zielony przycisk z myślnikiem, aby pomniejszyć; na zielone strzałki, aby przejść do map sąsiednich.


METAR-TAF: